Plymouth, North Carolina
Current Conditions -  °F | °C
As of 4:55 AM on Friday 31 Oct 2014 (Local Time) from KEDE Reporting Station
Clear Clear  
Wind Chill: 44°   Ceiling: Unl
Heat Index: 47°   Visibility: 10mi
Dew Point: 43°   Wind: 6mph
Humidity: 88%   Direction: 360°N
Pressure: 29.94"   Gusts: NA
Location:  35.87°N, 76.75°W
Report Text: KEDE 310855Z AUTO 36005KT 10SM CLR 08/06 A2994 RMK AO2 T00810062
Loading
Personal Weather Stations






























Interactive Weather Map
Tropical Storm Tracking
New forecast layout! Learn more

10-Day Weather Forecast

Advertisements
Track Severe Weather on mobile